sensor_id;sensor_type;location;lat;lon;timestamp;pressure;altitude;pressure_sealevel;temperature;humidity
29081;BME280;29711;53.360;-1.484;2022-09-09T00:01:04;99353.94;;;22.71;100.00
29081;BME280;29711;53.360;-1.484;2022-09-09T00:03:43;99359.72;;;22.69;100.00
29081;BME280;29711;53.360;-1.484;2022-09-09T00:06:19;99354.38;;;22.68;100.00
29081;BME280;29711;53.360;-1.484;2022-09-09T00:08:54;99355.44;;;22.67;100.00
29081;BME280;29711;53.360;-1.484;2022-09-09T00:11:30;99364.69;;;22.67;100.00
29081;BME280;29711;53.360;-1.484;2022-09-09T00:14:03;99355.69;;;22.65;100.00
29081;BME280;29711;53.360;-1.484;2022-09-09T00:16:40;99361.25;;;22.65;100.00
29081;BME280;29711;53.360;-1.484;2022-09-09T00:19:17;99353.13;;;22.64;100.00
29081;BME280;29711;53.360;-1.484;2022-09-09T00:21:53;99368.13;;;22.63;100.00
29081;BME280;29711;53.360;-1.484;2022-09-09T00:24:27;99368.13;;;22.63;100.00
29081;BME280;29711;53.360;-1.484;2022-09-09T00:27:01;99365.59;;;22.61;100.00
29081;BME280;29711;53.360;-1.484;2022-09-09T00:29:35;99371.16;;;22.61;100.00
29081;BME280;29711;53.360;-1.484;2022-09-09T00:32:13;99370.31;;;22.61;100.00
29081;BME280;29711;53.360;-1.484;2022-09-09T00:34:48;99362.16;;;22.59;100.00
29081;BME280;29711;53.360;-1.484;2022-09-09T00:37:18;99366.03;;;22.58;100.00
29081;BME280;29711;53.360;-1.484;2022-09-09T00:39:46;99360.44;;;22.58;100.00
29081;BME280;29711;53.360;-1.484;2022-09-09T00:42:18;99363.44;;;22.57;100.00
29081;BME280;29711;53.360;-1.484;2022-09-09T00:44:56;99362.59;;;22.56;100.00
29081;BME280;29711;53.360;-1.484;2022-09-09T00:47:39;99355.31;;;22.55;100.00
29081;BME280;29711;53.360;-1.484;2022-09-09T00:50:27;99370.34;;;22.54;100.00
29081;BME280;29711;53.360;-1.484;2022-09-09T00:53:05;99366.66;;;22.54;100.00
29081;BME280;29711;53.360;-1.484;2022-09-09T00:55:41;99362.19;;;22.53;100.00
29081;BME280;29711;53.360;-1.484;2022-09-09T00:58:16;99361.31;;;22.52;100.00
29081;BME280;29711;53.360;-1.484;2022-09-09T01:00:45;99354.91;;;22.52;100.00
29081;BME280;29711;53.360;-1.484;2022-09-09T01:03:22;99359.63;;;22.51;100.00
29081;BME280;29711;53.360;-1.484;2022-09-09T01:06:11;99357.88;;;22.50;100.00
29081;BME280;29711;53.360;-1.484;2022-09-09T01:09:07;99363.47;;;22.50;100.00
29081;BME280;29711;53.360;-1.484;2022-09-09T01:11:47;99358.13;;;22.48;100.00
29081;BME280;29711;53.360;-1.484;2022-09-09T01:14:34;99358.31;;;22.47;100.00
29081;BME280;29711;53.360;-1.484;2022-09-09T01:17:10;99363.91;;;22.47;100.00
29081;BME280;29711;53.360;-1.484;2022-09-09T01:19:49;99359.41;;;22.46;100.00
29081;BME280;29711;53.360;-1.484;2022-09-09T01:22:29;99374.47;;;22.45;100.00
29081;BME280;29711;53.360;-1.484;2022-09-09T01:25:19;99365.22;;;22.44;100.00
29081;BME280;29711;53.360;-1.484;2022-09-09T01:27:49;99362.66;;;22.43;100.00
29081;BME280;29711;53.360;-1.484;2022-09-09T01:30:18;99363.50;;;22.43;100.00
29081;BME280;29711;53.360;-1.484;2022-09-09T01:32:53;99366.53;;;22.42;100.00
29081;BME280;29711;53.360;-1.484;2022-09-09T01:35:32;99362.66;;;22.43;100.00
29081;BME280;29711;53.360;-1.484;2022-09-09T01:38:01;99368.47;;;22.41;100.00
29081;BME280;29711;53.360;-1.484;2022-09-09T01:40:28;99356.44;;;22.41;100.00
29081;BME280;29711;53.360;-1.484;2022-09-09T01:42:56;99364.81;;;22.41;100.00
29081;BME280;29711;53.360;-1.484;2022-09-09T01:45:24;99368.66;;;22.40;100.00
29081;BME280;29711;53.360;-1.484;2022-09-09T01:47:52;99365.25;;;22.38;100.00
29081;BME280;29711;53.360;-1.484;2022-09-09T01:50:20;99362.47;;;22.38;100.00
29081;BME280;29711;53.360;-1.484;2022-09-09T01:52:52;99354.09;;;22.38;100.00
29081;BME280;29711;53.360;-1.484;2022-09-09T01:55:28;99357.94;;;22.37;100.00
29081;BME280;29711;53.360;-1.484;2022-09-09T01:58:19;99362.69;;;22.36;100.00
29081;BME280;29711;53.360;-1.484;2022-09-09T02:00:56;99359.03;;;22.36;100.00
29081;BME280;29711;53.360;-1.484;2022-09-09T02:03:31;99357.53;;;22.33;100.00
29081;BME280;29711;53.360;-1.484;2022-09-09T02:06:08;99351.09;;;22.33;100.00
29081;BME280;29711;53.360;-1.484;2022-09-09T02:08:44;99352.81;;;22.34;100.00
29081;BME280;29711;53.360;-1.484;2022-09-09T02:11:14;99349.41;;;22.32;100.00
29081;BME280;29711;53.360;-1.484;2022-09-09T02:13:45;99343.81;;;22.32;100.00
29081;BME280;29711;53.360;-1.484;2022-09-09T02:16:16;99345.97;;;22.30;100.00
29081;BME280;29711;53.360;-1.484;2022-09-09T02:18:48;99334.81;;;22.30;100.00
29081;BME280;29711;53.360;-1.484;2022-09-09T02:21:17;99342.09;;;22.31;100.00
29081;BME280;29711;53.360;-1.484;2022-09-09T02:23:47;99350.69;;;22.29;100.00
29081;BME280;29711;53.360;-1.484;2022-09-09T02:26:19;99347.06;;;22.29;100.00
29081;BME280;29711;53.360;-1.484;2022-09-09T02:28:51;99347.06;;;22.29;100.00
29081;BME280;29711;53.360;-1.484;2022-09-09T02:31:22;99352.63;;;22.29;100.00
29081;BME280;29711;53.360;-1.484;2022-09-09T02:33:53;99359.25;;;22.28;100.00
29081;BME280;29711;53.360;-1.484;2022-09-09T02:36:22;99351.97;;;22.27;100.00
29081;BME280;29711;53.360;-1.484;2022-09-09T02:38:51;99356.72;;;22.26;100.00
29081;BME280;29711;53.360;-1.484;2022-09-09T02:41:21;99350.28;;;22.26;100.00
29081;BME280;29711;53.360;-1.484;2022-09-09T02:43:52;99351.13;;;22.26;100.00
29081;BME280;29711;53.360;-1.484;2022-09-09T02:46:32;99358.66;;;22.26;100.00
29081;BME280;29711;53.360;-1.484;2022-09-09T02:49:10;99354.16;;;22.24;100.00
29081;BME280;29711;53.360;-1.484;2022-09-09T02:51:45;99358.84;;;22.24;100.00
29081;BME280;29711;53.360;-1.484;2022-09-09T02:54:23;99358.00;;;22.23;100.00
29081;BME280;29711;53.360;-1.484;2022-09-09T02:56:53;99358.22;;;22.22;100.00
29081;BME280;29711;53.360;-1.484;2022-09-09T02:59:25;99363.56;;;22.23;100.00
29081;BME280;29711;53.360;-1.484;2022-09-09T03:01:52;99360.19;;;22.21;100.00
29081;BME280;29711;53.360;-1.484;2022-09-09T03:04:19;99357.38;;;22.21;100.00
29081;BME280;29711;53.360;-1.484;2022-09-09T03:06:46;99360.19;;;22.21;100.00
29081;BME280;29711;53.360;-1.484;2022-09-09T03:09:15;99352.84;;;22.20;100.00
29081;BME280;29711;53.360;-1.484;2022-09-09T03:11:43;99363.16;;;22.20;100.00
29081;BME280;29711;53.360;-1.484;2022-09-09T03:14:12;99363.16;;;22.20;100.00
29081;BME280;29711;53.360;-1.484;2022-09-09T03:16:41;99350.31;;;22.19;100.00
29081;BME280;29711;53.360;-1.484;2022-09-09T03:19:08;99349.44;;;22.18;100.00
29081;BME280;29711;53.360;-1.484;2022-09-09T03:21:35;99355.88;;;22.19;100.00
29081;BME280;29711;53.360;-1.484;2022-09-09T03:24:02;99350.50;;;22.17;100.00
29081;BME280;29711;53.360;-1.484;2022-09-09T03:26:30;99353.28;;;22.17;100.00
29081;BME280;29711;53.360;-1.484;2022-09-09T03:28:57;99358.88;;;22.17;100.00
29081;BME280;29711;53.360;-1.484;2022-09-09T03:31:26;99350.75;;;22.16;100.00
29081;BME280;29711;53.360;-1.484;2022-09-09T03:33:57;99355.47;;;22.15;100.00
29081;BME280;29711;53.360;-1.484;2022-09-09T03:36:24;99361.03;;;22.15;100.00
29081;BME280;29711;53.360;-1.484;2022-09-09T03:38:53;99356.50;;;22.14;100.00
29081;BME280;29711;53.360;-1.484;2022-09-09T03:41:21;99360.16;;;22.15;100.00
29081;BME280;29711;53.360;-1.484;2022-09-09T03:43:49;99365.75;;;22.15;100.00
29081;BME280;29711;53.360;-1.484;2022-09-09T03:46:17;99360.38;;;22.13;100.00
29081;BME280;29711;53.360;-1.484;2022-09-09T03:48:44;99367.66;;;22.14;100.00
29081;BME280;29711;53.360;-1.484;2022-09-09T03:51:13;99361.44;;;22.12;100.00
29081;BME280;29711;53.360;-1.484;2022-09-09T03:53:40;99364.25;;;22.12;100.00
29081;BME280;29711;53.360;-1.484;2022-09-09T03:56:07;99367.03;;;22.12;100.00
29081;BME280;29711;53.360;-1.484;2022-09-09T03:58:35;99359.75;;;22.11;100.00
29081;BME280;29711;53.360;-1.484;2022-09-09T04:01:04;99359.75;;;22.11;100.00
29081;BME280;29711;53.360;-1.484;2022-09-09T04:03:33;99370.91;;;22.11;100.00
29081;BME280;29711;53.360;-1.484;2022-09-09T04:06:03;99365.31;;;22.11;100.00
29081;BME280;29711;53.360;-1.484;2022-09-09T04:08:33;99373.03;;;22.09;100.00
29081;BME280;29711;53.360;-1.484;2022-09-09T04:11:02;99366.38;;;22.10;100.00
29081;BME280;29711;53.360;-1.484;2022-09-09T04:13:32;99379.47;;;22.10;100.00
29081;BME280;29711;53.360;-1.484;2022-09-09T04:16:01;99373.25;;;22.08;100.00
29081;BME280;29711;53.360;-1.484;2022-09-09T04:18:30;99375.19;;;22.07;100.00
29081;BME280;29711;53.360;-1.484;2022-09-09T04:20:57;99370.44;;;22.08;100.00
29081;BME280;29711;53.360;-1.484;2022-09-09T04:23:25;99372.38;;;22.07;100.00
29081;BME280;29711;53.360;-1.484;2022-09-09T04:28:24;99373.47;;;22.06;100.00
29081;BME280;29711;53.360;-1.484;2022-09-09T04:30:52;99376.25;;;22.06;100.00
29081;BME280;29711;53.360;-1.484;2022-09-09T04:33:19;99377.34;;;22.05;100.00
29081;BME280;29711;53.360;-1.484;2022-09-09T04:35:47;99377.34;;;22.05;100.00
29081;BME280;29711;53.360;-1.484;2022-09-09T04:38:15;99377.34;;;22.05;100.00
29081;BME280;29711;53.360;-1.484;2022-09-09T04:40:42;99381.19;;;22.04;100.00
29081;BME280;29711;53.360;-1.484;2022-09-09T04:43:11;99381.19;;;22.04;100.00
29081;BME280;29711;53.360;-1.484;2022-09-09T04:45:40;99382.28;;;22.03;100.00
29081;BME280;29711;53.360;-1.484;2022-09-09T04:48:07;99385.06;;;22.03;100.00
29081;BME280;29711;53.360;-1.484;2022-09-09T04:50:35;99386.16;;;22.02;100.00
29081;BME280;29711;53.360;-1.484;2022-09-09T04:53:02;99387.84;;;22.03;100.00
29081;BME280;29711;53.360;-1.484;2022-09-09T04:55:30;99387.19;;;22.01;100.00
29081;BME280;29711;53.360;-1.484;2022-09-09T04:58:03;99388.94;;;22.02;100.00
29081;BME280;29711;53.360;-1.484;2022-09-09T05:00:32;99394.72;;;22.00;100.00
29081;BME280;29711;53.360;-1.484;2022-09-09T05:03:02;99399.44;;;22.00;100.00
29081;BME280;29711;53.360;-1.484;2022-09-09T05:05:29;99401.38;;;21.99;100.00
29081;BME280;29711;53.360;-1.484;2022-09-09T05:08:01;99400.53;;;21.99;100.00
29081;BME280;29711;53.360;-1.484;2022-09-09T05:10:29;99406.09;;;21.99;100.00
29081;BME280;29711;53.360;-1.484;2022-09-09T05:12:56;99410.84;;;21.98;100.00
29081;BME280;29711;53.360;-1.484;2022-09-09T05:15:24;99414.66;;;21.97;100.00
29081;BME280;29711;53.360;-1.484;2022-09-09T05:17:52;99412.13;;;21.96;100.00
29081;BME280;29711;53.360;-1.484;2022-09-09T05:20:23;99406.53;;;21.96;100.00
29081;BME280;29711;53.360;-1.484;2022-09-09T05:22:52;99411.25;;;21.95;100.00
29081;BME280;29711;53.360;-1.484;2022-09-09T05:25:20;99414.06;;;21.95;100.00
29081;BME280;29711;53.360;-1.484;2022-09-09T05:27:47;99417.69;;;21.96;100.00
29081;BME280;29711;53.360;-1.484;2022-09-09T05:30:15;99413.19;;;21.95;100.00
29081;BME280;29711;53.360;-1.484;2022-09-09T05:32:42;99419.81;;;21.94;100.00
29081;BME280;29711;53.360;-1.484;2022-09-09T05:35:12;99418.13;;;21.93;100.00
29081;BME280;29711;53.360;-1.484;2022-09-09T05:37:39;99420.06;;;21.92;100.00
29081;BME280;29711;53.360;-1.484;2022-09-09T05:40:06;99417.28;;;21.92;100.00
29081;BME280;29711;53.360;-1.484;2022-09-09T05:42:33;99427.56;;;21.92;100.00
29081;BME280;29711;53.360;-1.484;2022-09-09T05:45:00;99428.41;;;21.92;100.00
29081;BME280;29711;53.360;-1.484;2022-09-09T05:47:28;99420.25;;;21.91;100.00
29081;BME280;29711;53.360;-1.484;2022-09-09T05:49:55;99429.69;;;21.90;100.00
29081;BME280;29711;53.360;-1.484;2022-09-09T05:52:23;99425.84;;;21.91;100.00
29081;BME280;29711;53.360;-1.484;2022-09-09T05:54:51;99425.84;;;21.91;100.00
29081;BME280;29711;53.360;-1.484;2022-09-09T05:57:19;99434.19;;;21.91;100.00
29081;BME280;29711;53.360;-1.484;2022-09-09T05:59:46;99435.28;;;21.90;100.00
29081;BME280;29711;53.360;-1.484;2022-09-09T06:02:13;99438.06;;;21.90;100.00
29081;BME280;29711;53.360;-1.484;2022-09-09T06:04:40;99438.06;;;21.90;100.00
29081;BME280;29711;53.360;-1.484;2022-09-09T06:07:07;99433.56;;;21.89;100.00
29081;BME280;29711;53.360;-1.484;2022-09-09T06:09:35;99437.22;;;21.89;100.00
29081;BME280;29711;53.360;-1.484;2022-09-09T06:12:02;99444.72;;;21.89;100.00
29081;BME280;29711;53.360;-1.484;2022-09-09T06:14:30;99439.16;;;21.89;100.00
29081;BME280;29711;53.360;-1.484;2022-09-09T06:16:57;99441.94;;;21.89;100.00
29081;BME280;29711;53.360;-1.484;2022-09-09T06:19:25;99441.94;;;21.89;100.00
29081;BME280;29711;53.360;-1.484;2022-09-09T06:21:52;99449.44;;;21.88;100.00
29081;BME280;29711;53.360;-1.484;2022-09-09T06:24:20;99453.09;;;21.89;100.00
29081;BME280;29711;53.360;-1.484;2022-09-09T06:26:49;99450.31;;;21.89;100.00
29081;BME280;29711;53.360;-1.484;2022-09-09T06:29:16;99451.16;;;21.89;100.00
29081;BME280;29711;53.360;-1.484;2022-09-09T06:31:42;99461.47;;;21.89;100.00
29081;BME280;29711;53.360;-1.484;2022-09-09T06:34:10;99467.03;;;21.89;100.00
29081;BME280;29711;53.360;-1.484;2022-09-09T06:36:38;99471.53;;;21.90;100.00
29081;BME280;29711;53.360;-1.484;2022-09-09T06:39:06;99472.59;;;21.89;100.00
29081;BME280;29711;53.360;-1.484;2022-09-09T06:41:34;99478.19;;;21.89;100.00
29081;BME280;29711;53.360;-1.484;2022-09-09T06:44:04;99472.59;;;21.89;100.00
29081;BME280;29711;53.360;-1.484;2022-09-09T06:46:31;99476.44;;;21.88;100.00
29081;BME280;29711;53.360;-1.484;2022-09-09T06:48:59;99468.09;;;21.88;100.00
29081;BME280;29711;53.360;-1.484;2022-09-09T06:51:29;99471.75;;;21.88;100.00
29081;BME280;29711;53.360;-1.484;2022-09-09T06:53:59;99475.59;;;21.87;100.00
29081;BME280;29711;53.360;-1.484;2022-09-09T06:56:29;99476.44;;;21.88;100.00
29081;BME280;29711;53.360;-1.484;2022-09-09T06:58:58;99487.59;;;21.88;100.00
29081;BME280;29711;53.360;-1.484;2022-09-09T07:01:30;99477.34;;;21.88;100.00
29081;BME280;29711;53.360;-1.484;2022-09-09T07:03:58;99489.34;;;21.89;100.00
29081;BME280;29711;53.360;-1.484;2022-09-09T07:06:27;99495.97;;;21.88;100.00
29081;BME280;29711;53.360;-1.484;2022-09-09T07:08:59;99493.19;;;21.88;100.00
29081;BME280;29711;53.360;-1.484;2022-09-09T07:11:28;99491.47;;;21.87;100.00
29081;BME280;29711;53.360;-1.484;2022-09-09T07:13:57;99500.91;;;21.86;100.00
29081;BME280;29711;53.360;-1.484;2022-09-09T07:16:25;99495.09;;;21.87;100.00
29081;BME280;29711;53.360;-1.484;2022-09-09T07:18:54;99501.78;;;21.86;100.00
29081;BME280;29711;53.360;-1.484;2022-09-09T07:21:24;99495.34;;;21.86;100.00
29081;BME280;29711;53.360;-1.484;2022-09-09T07:23:52;99498.31;;;21.84;100.00
29081;BME280;29711;53.360;-1.484;2022-09-09T07:26:21;99504.75;;;21.85;100.00
29081;BME280;29711;53.360;-1.484;2022-09-09T07:28:51;99511.22;;;21.85;100.00
29081;BME280;29711;53.360;-1.484;2022-09-09T07:31:20;99504.75;;;21.85;100.00
29081;BME280;29711;53.360;-1.484;2022-09-09T07:33:48;99512.91;;;21.86;100.00
29081;BME280;29711;53.360;-1.484;2022-09-09T07:36:18;99505.63;;;21.85;100.00
29081;BME280;29711;53.360;-1.484;2022-09-09T07:38:49;99507.53;;;21.85;100.00
29081;BME280;29711;53.360;-1.484;2022-09-09T07:41:23;99510.34;;;21.85;100.00
29081;BME280;29711;53.360;-1.484;2022-09-09T07:43:51;99512.50;;;21.83;100.00
29081;BME280;29711;53.360;-1.484;2022-09-09T07:46:21;99518.91;;;21.83;100.00
29081;BME280;29711;53.360;-1.484;2022-09-09T07:48:50;99518.91;;;21.83;100.00
29081;BME280;29711;53.360;-1.484;2022-09-09T07:51:23;99528.38;;;21.82;100.00
29081;BME280;29711;53.360;-1.484;2022-09-09T07:53:52;99525.59;;;21.82;100.00
29081;BME280;29711;53.360;-1.484;2022-09-09T07:56:21;99530.94;;;21.84;100.00
29081;BME280;29711;53.360;-1.484;2022-09-09T07:58:51;99537.34;;;21.84;100.00
29081;BME280;29711;53.360;-1.484;2022-09-09T08:01:21;99535.41;;;21.85;100.00
29081;BME280;29711;53.360;-1.484;2022-09-09T08:03:54;99541.00;;;21.85;100.00
29081;BME280;29711;53.360;-1.484;2022-09-09T08:06:23;99534.78;;;21.83;100.00
29081;BME280;29711;53.360;-1.484;2022-09-09T08:08:52;99542.94;;;21.84;100.00
29081;BME280;29711;53.360;-1.484;2022-09-09T08:11:22;99541.22;;;21.83;100.00
29081;BME280;29711;53.360;-1.484;2022-09-09T08:13:51;99537.34;;;21.84;100.00
29081;BME280;29711;53.360;-1.484;2022-09-09T08:16:20;99540.16;;;21.84;100.00
29081;BME280;29711;53.360;-1.484;2022-09-09T08:18:48;99542.72;;;21.86;100.00
29081;BME280;29711;53.360;-1.484;2022-09-09T08:21:18;99539.94;;;21.86;100.00
29081;BME280;29711;53.360;-1.484;2022-09-09T08:23:51;99539.94;;;21.86;100.00
29081;BME280;29711;53.360;-1.484;2022-09-09T08:26:20;99547.66;;;21.84;100.00
29081;BME280;29711;53.360;-1.484;2022-09-09T08:28:49;99551.28;;;21.84;100.00
29081;BME280;29711;53.360;-1.484;2022-09-09T08:31:20;99553.88;;;21.86;100.00
29081;BME280;29711;53.360;-1.484;2022-09-09T08:33:50;99556.88;;;21.84;100.00
29081;BME280;29711;53.360;-1.484;2022-09-09T08:36:19;99568.25;;;21.83;100.00
29081;BME280;29711;53.360;-1.484;2022-09-09T08:38:49;99556.03;;;21.84;100.00
29081;BME280;29711;53.360;-1.484;2022-09-09T08:41:37;99557.09;;;21.83;100.00
29081;BME280;29711;53.360;-1.484;2022-09-09T08:44:08;99562.69;;;21.83;100.00
29081;BME280;29711;53.360;-1.484;2022-09-09T08:46:45;99574.44;;;21.85;100.00
29081;BME280;29711;53.360;-1.484;2022-09-09T08:49:38;99573.59;;;21.84;100.00
29081;BME280;29711;53.360;-1.484;2022-09-09T08:52:15;99575.53;;;21.84;100.00
29081;BME280;29711;53.360;-1.484;2022-09-09T08:54:45;99582.81;;;21.85;100.00
29081;BME280;29711;53.360;-1.484;2022-09-09T08:57:20;99579.00;;;21.92;100.00
29081;BME280;29711;53.360;-1.484;2022-09-09T08:59:54;99571.69;;;21.98;100.00
29081;BME280;29711;53.360;-1.484;2022-09-09T09:02:27;99575.97;;;22.00;100.00
29081;BME280;29711;53.360;-1.484;2022-09-09T09:05:08;99570.84;;;22.04;100.00
29081;BME280;29711;53.360;-1.484;2022-09-09T09:07:57;99583.72;;;22.05;100.00
29081;BME280;29711;53.360;-1.484;2022-09-09T09:10:39;99589.06;;;22.07;100.00
29081;BME280;29711;53.360;-1.484;2022-09-09T09:13:14;99588.66;;;22.10;100.00
29081;BME280;29711;53.360;-1.484;2022-09-09T09:15:44;99606.50;;;22.15;100.00
29081;BME280;29711;53.360;-1.484;2022-09-09T09:18:13;99593.56;;;22.14;100.00
29081;BME280;29711;53.360;-1.484;2022-09-09T09:20:49;99600.50;;;22.18;100.00
29081;BME280;29711;53.360;-1.484;2022-09-09T09:23:21;99593.19;;;22.17;100.00
29081;BME280;29711;53.360;-1.484;2022-09-09T09:25:52;99598.34;;;22.20;100.00
29081;BME280;29711;53.360;-1.484;2022-09-09T09:28:27;99595.34;;;22.22;100.00
29081;BME280;29711;53.360;-1.484;2022-09-09T09:31:00;99594.25;;;22.23;100.00
29081;BME280;29711;53.360;-1.484;2022-09-09T09:33:37;99598.75;;;22.24;100.00
29081;BME280;29711;53.360;-1.484;2022-09-09T09:36:07;99608.03;;;22.24;100.00
29081;BME280;29711;53.360;-1.484;2022-09-09T09:38:36;99605.84;;;22.27;100.00
29081;BME280;29711;53.360;-1.484;2022-09-09T09:41:04;99615.06;;;22.27;100.00
29081;BME280;29711;53.360;-1.484;2022-09-09T09:43:33;99606.50;;;22.29;100.00
29081;BME280;29711;53.360;-1.484;2022-09-09T09:46:04;99613.78;;;22.30;100.00
29081;BME280;29711;53.360;-1.484;2022-09-09T09:48:31;99616.16;;;22.33;100.00
29081;BME280;29711;53.360;-1.484;2022-09-09T09:51:00;99618.75;;;22.34;100.00
29081;BME280;29711;53.360;-1.484;2022-09-09T09:53:34;99616.59;;;22.36;100.00
29081;BME280;29711;53.360;-1.484;2022-09-09T09:56:05;99619.19;;;22.38;100.00
29081;BME280;29711;53.360;-1.484;2022-09-09T09:58:49;99634.41;;;22.42;100.00
29081;BME280;29711;53.360;-1.484;2022-09-09T10:01:23;99623.03;;;22.43;100.00
29081;BME280;29711;53.360;-1.484;2022-09-09T10:03:52;99624.97;;;22.43;100.00
29081;BME280;29711;53.360;-1.484;2022-09-09T10:06:29;99634.41;;;22.42;100.00
29081;BME280;29711;53.360;-1.484;2022-09-09T10:08:56;99633.56;;;22.41;100.00
29081;BME280;29711;53.360;-1.484;2022-09-09T10:11:33;99630.97;;;22.40;100.00
29081;BME280;29711;53.360;-1.484;2022-09-09T10:14:10;99639.56;;;22.38;100.00
29081;BME280;29711;53.360;-1.484;2022-09-09T10:16:55;99631.38;;;22.37;100.00
29081;BME280;29711;53.360;-1.484;2022-09-09T10:19:29;99639.75;;;22.37;100.00
29081;BME280;29711;53.360;-1.484;2022-09-09T10:22:07;99638.72;;;22.38;100.00
29081;BME280;29711;53.360;-1.484;2022-09-09T10:25:04;99634.41;;;22.42;100.00
29081;BME280;29711;53.360;-1.484;2022-09-09T10:27:45;99634.41;;;22.42;100.00
29081;BME280;29711;53.360;-1.484;2022-09-09T10:30:19;99638.72;;;22.44;100.00
29081;BME280;29711;53.360;-1.484;2022-09-09T10:32:59;99633.97;;;22.45;100.00
29081;BME280;29711;53.360;-1.484;2022-09-09T10:35:34;99636.53;;;22.46;100.00
29081;BME280;29711;53.360;-1.484;2022-09-09T10:38:14;99631.81;;;22.47;100.00
29081;BME280;29711;53.360;-1.484;2022-09-09T10:40:47;99637.41;;;22.47;100.00
29081;BME280;29711;53.360;-1.484;2022-09-09T10:43:33;99633.31;;;22.50;100.00
29081;BME280;29711;53.360;-1.484;2022-09-09T10:46:10;99632.25;;;22.51;100.00
29081;BME280;29711;53.360;-1.484;2022-09-09T10:48:56;99633.13;;;22.51;100.00
29081;BME280;29711;53.360;-1.484;2022-09-09T10:51:35;99627.13;;;22.54;100.00
29081;BME280;29711;53.360;-1.484;2022-09-09T10:54:17;99638.91;;;22.56;100.00
29081;BME280;29711;53.360;-1.484;2022-09-09T10:56:52;99638.28;;;22.54;100.00
29081;BME280;29711;53.360;-1.484;2022-09-09T10:59:26;99642.56;;;22.57;100.00
29081;BME280;29711;53.360;-1.484;2022-09-09T11:01:58;99633.13;;;22.58;100.00
29081;BME280;29711;53.360;-1.484;2022-09-09T11:04:32;99633.97;;;22.58;100.00
29081;BME280;29711;53.360;-1.484;2022-09-09T11:07:06;99633.97;;;22.58;100.00
29081;BME280;29711;53.360;-1.484;2022-09-09T11:09:39;99636.53;;;22.60;100.00
29081;BME280;29711;53.360;-1.484;2022-09-09T11:12:14;99628.81;;;22.62;100.00
29081;BME280;29711;53.360;-1.484;2022-09-09T11:14:48;99639.56;;;22.45;100.00
29081;BME280;29711;53.360;-1.484;2022-09-09T11:17:19;99654.56;;;22.44;100.00
29081;BME280;29711;53.360;-1.484;2022-09-09T11:19:47;99655.44;;;22.64;100.00
29081;BME280;29711;53.360;-1.484;2022-09-09T11:22:21;99654.56;;;22.84;100.00
29081;BME280;29711;53.360;-1.484;2022-09-09T11:24:54;99632.25;;;22.64;100.00
29081;BME280;29711;53.360;-1.484;2022-09-09T11:27:29;99645.56;;;22.68;100.00
29081;BME280;29711;53.360;-1.484;2022-09-09T11:30:13;99652.22;;;22.74;100.00
29081;BME280;29711;53.360;-1.484;2022-09-09T11:36:02;99647.69;;;22.80;100.00
29081;BME280;29711;53.360;-1.484;2022-09-09T11:38:42;99645.53;;;22.82;100.00
29081;BME280;29711;53.360;-1.484;2022-09-09T11:41:11;99643.84;;;22.81;100.00
29081;BME280;29711;53.360;-1.484;2022-09-09T11:43:40;99646.63;;;22.81;100.00
29081;BME280;29711;53.360;-1.484;2022-09-09T11:46:11;99642.09;;;22.80;100.00
29081;BME280;29711;53.360;-1.484;2022-09-09T11:48:40;99660.59;;;22.81;100.00
29081;BME280;29711;53.360;-1.484;2022-09-09T11:51:13;99660.59;;;22.81;100.00
29081;BME280;29711;53.360;-1.484;2022-09-09T11:53:50;99663.16;;;22.82;100.00
29081;BME280;29711;53.360;-1.484;2022-09-09T11:56:26;99659.50;;;22.82;100.00
29081;BME280;29711;53.360;-1.484;2022-09-09T11:58:57;99676.03;;;22.83;100.00
29081;BME280;29711;53.360;-1.484;2022-09-09T12:01:38;99670.25;;;22.85;100.00
29081;BME280;29711;53.360;-1.484;2022-09-09T12:04:28;99681.19;;;22.86;100.00
29081;BME280;29711;53.360;-1.484;2022-09-09T12:06:58;99674.75;;;22.86;100.00
29081;BME280;29711;53.360;-1.484;2022-09-09T12:09:43;99676.50;;;22.87;100.00
29081;BME280;29711;53.360;-1.484;2022-09-09T12:12:30;99680.75;;;22.89;100.00
29081;BME280;29711;53.360;-1.484;2022-09-09T12:15:01;99670.44;;;22.90;100.00
29081;BME280;29711;53.360;-1.484;2022-09-09T12:17:31;99668.31;;;22.92;100.00
29081;BME280;29711;53.360;-1.484;2022-09-09T12:20:10;99672.41;;;22.96;100.00
29081;BME280;29711;53.360;-1.484;2022-09-09T12:25:44;99678.63;;;22.98;100.00
29081;BME280;29711;53.360;-1.484;2022-09-09T12:28:17;99676.69;;;22.99;100.00
29081;BME280;29711;53.360;-1.484;2022-09-09T12:30:49;99671.75;;;23.01;100.00
29081;BME280;29711;53.360;-1.484;2022-09-09T12:33:23;99656.28;;;22.98;100.00
29081;BME280;29711;53.360;-1.484;2022-09-09T12:35:55;99669.59;;;22.96;100.00
29081;BME280;29711;53.360;-1.484;2022-09-09T12:38:30;99670.47;;;22.97;100.00
29081;BME280;29711;53.360;-1.484;2022-09-09T12:41:02;99688.09;;;22.97;100.00
29081;BME280;29711;53.360;-1.484;2022-09-09T12:43:30;99689.38;;;22.94;100.00
29081;BME280;29711;53.360;-1.484;2022-09-09T12:46:00;99693.44;;;22.92;100.00
29081;BME280;29711;53.360;-1.484;2022-09-09T12:48:33;99698.38;;;22.90;100.00
29081;BME280;29711;53.360;-1.484;2022-09-09T12:51:02;99700.53;;;22.88;100.00
29081;BME280;29711;53.360;-1.484;2022-09-09T12:53:34;99700.53;;;22.88;100.00
29081;BME280;29711;53.360;-1.484;2022-09-09T12:56:04;99707.81;;;22.89;100.00
29081;BME280;29711;53.360;-1.484;2022-09-09T12:58:33;99701.16;;;22.90;100.00
29081;BME280;29711;53.360;-1.484;2022-09-09T13:01:04;99704.41;;;22.87;100.00
29081;BME280;29711;53.360;-1.484;2022-09-09T13:03:41;99709.78;;;22.88;100.00
29081;BME280;29711;53.360;-1.484;2022-09-09T13:06:17;99711.72;;;22.88;100.00
29081;BME280;29711;53.360;-1.484;2022-09-09T13:08:45;99710.00;;;22.87;100.00
29081;BME280;29711;53.360;-1.484;2022-09-09T13:11:14;99720.28;;;22.86;100.00
29081;BME280;29711;53.360;-1.484;2022-09-09T13:13:50;99737.94;;;22.87;100.00